createdAt,value
2023-03-30T00:01:14.891Z,100.00
2023-03-30T00:03:43.359Z,100.00
2023-03-30T00:06:12.484Z,100.00
2023-03-30T00:08:39.346Z,100.00
2023-03-30T00:11:13.404Z,100.00
2023-03-30T00:13:40.535Z,100.00
2023-03-30T00:16:12.143Z,100.00
2023-03-30T00:18:39.826Z,100.00
2023-03-30T00:21:09.952Z,100.00
2023-03-30T00:23:38.349Z,100.00
2023-03-30T00:26:05.413Z,100.00
2023-03-30T00:28:32.337Z,100.00
2023-03-30T00:30:59.791Z,100.00
2023-03-30T00:33:41.518Z,100.00
2023-03-30T00:36:11.713Z,100.00
2023-03-30T00:38:38.637Z,100.00
2023-03-30T00:41:07.122Z,100.00
2023-03-30T00:43:34.180Z,100.00
2023-03-30T00:46:01.425Z,100.00
2023-03-30T00:48:34.558Z,100.00
2023-03-30T00:51:12.254Z,100.00
2023-03-30T00:53:47.229Z,100.00
2023-03-30T00:56:17.992Z,100.00
2023-03-30T00:58:45.293Z,100.00
2023-03-30T01:01:18.843Z,100.00
2023-03-30T01:03:48.070Z,100.00
2023-03-30T01:06:17.970Z,100.00
2023-03-30T01:08:45.702Z,100.00
2023-03-30T01:11:12.540Z,100.00
2023-03-30T01:13:44.962Z,100.00
2023-03-30T01:17:02.933Z,100.00
2023-03-30T01:20:28.373Z,100.00
2023-03-30T01:23:19.839Z,100.00
2023-03-30T01:26:01.552Z,100.00
2023-03-30T01:28:43.703Z,100.00
2023-03-30T01:31:52.895Z,100.00
2023-03-30T01:34:43.904Z,100.00
2023-03-30T01:37:34.502Z,100.00
2023-03-30T01:40:41.124Z,100.00
2023-03-30T01:43:38.094Z,100.00
2023-03-30T01:46:20.035Z,100.00
2023-03-30T01:48:57.957Z,100.00
2023-03-30T01:51:33.959Z,100.00
2023-03-30T01:54:08.675Z,100.00
2023-03-30T01:56:59.987Z,100.00
2023-03-30T01:59:39.150Z,100.00
2023-03-30T02:02:07.281Z,100.00
2023-03-30T02:04:40.719Z,100.00
2023-03-30T02:07:14.522Z,100.00
2023-03-30T02:09:43.909Z,100.00
2023-03-30T02:12:11.629Z,100.00
2023-03-30T02:14:41.668Z,100.00
2023-03-30T02:17:19.559Z,100.00
2023-03-30T02:19:47.627Z,100.00
2023-03-30T02:22:16.628Z,100.00
2023-03-30T02:24:46.554Z,100.00
2023-03-30T02:27:13.749Z,100.00
2023-03-30T02:29:44.533Z,100.00
2023-03-30T02:32:28.494Z,100.00
2023-03-30T02:35:33.089Z,100.00
2023-03-30T02:38:15.527Z,100.00
2023-03-30T02:41:08.774Z,100.00
2023-03-30T02:44:26.686Z,100.00
2023-03-30T02:47:09.231Z,100.00
2023-03-30T02:50:13.742Z,100.00
2023-03-30T02:52:57.000Z,100.00
2023-03-30T02:55:37.900Z,100.00
2023-03-30T02:58:24.240Z,100.00
2023-03-30T03:01:04.477Z,100.00
2023-03-30T03:03:40.167Z,100.00
2023-03-30T03:06:09.322Z,100.00
2023-03-30T03:08:39.836Z,100.00
2023-03-30T03:11:07.913Z,100.00
2023-03-30T03:13:39.535Z,100.00
2023-03-30T03:16:10.952Z,100.00
2023-03-30T03:18:44.718Z,100.00
2023-03-30T03:21:14.030Z,100.00
2023-03-30T03:23:41.143Z,100.00
2023-03-30T03:26:09.057Z,100.00
2023-03-30T03:28:36.317Z,100.00
2023-03-30T03:31:04.045Z,100.00
2023-03-30T03:33:33.687Z,100.00
2023-03-30T03:36:00.684Z,100.00
2023-03-30T03:38:28.072Z,100.00
2023-03-30T03:40:58.381Z,100.00
2023-03-30T03:43:26.091Z,100.00
2023-03-30T03:45:53.794Z,100.00
2023-03-30T03:48:23.564Z,100.00
2023-03-30T03:50:56.618Z,100.00
2023-03-30T03:53:26.565Z,100.00
2023-03-30T03:55:54.625Z,100.00
2023-03-30T03:58:22.198Z,100.00
2023-03-30T04:00:49.890Z,100.00
2023-03-30T04:03:17.070Z,100.00
2023-03-30T04:05:44.246Z,100.00
2023-03-30T04:08:11.849Z,100.00
2023-03-30T04:10:40.160Z,100.00
2023-03-30T04:13:07.683Z,100.00
2023-03-30T04:15:35.359Z,100.00
2023-03-30T04:18:02.298Z,100.00
2023-03-30T04:20:30.070Z,100.00
2023-03-30T04:22:57.279Z,100.00
2023-03-30T04:25:29.132Z,100.00
2023-03-30T04:27:57.253Z,100.00
2023-03-30T04:30:24.810Z,100.00
2023-03-30T04:33:02.766Z,100.00
2023-03-30T04:35:34.780Z,100.00
2023-03-30T04:38:02.403Z,100.00
2023-03-30T04:40:29.769Z,100.00
2023-03-30T04:43:02.360Z,100.00
2023-03-30T04:45:31.005Z,100.00
2023-03-30T04:47:58.204Z,100.00
2023-03-30T04:50:25.209Z,100.00
2023-03-30T04:52:52.072Z,100.00
2023-03-30T04:55:18.901Z,100.00
2023-03-30T04:57:46.487Z,100.00
2023-03-30T05:00:14.105Z,100.00
2023-03-30T05:02:42.132Z,100.00
2023-03-30T05:05:09.193Z,100.00
2023-03-30T05:07:36.157Z,100.00
2023-03-30T05:10:03.068Z,100.00
2023-03-30T05:12:29.908Z,100.00
2023-03-30T05:14:56.766Z,100.00
2023-03-30T05:17:23.627Z,100.00
2023-03-30T05:19:50.478Z,100.00
2023-03-30T05:22:17.332Z,100.00
2023-03-30T05:24:44.161Z,100.00
2023-03-30T05:27:11.213Z,100.00
2023-03-30T05:29:38.113Z,100.00
2023-03-30T05:32:05.065Z,100.00
2023-03-30T05:34:31.863Z,100.00
2023-03-30T05:36:58.704Z,100.00
2023-03-30T05:39:25.512Z,100.00
2023-03-30T05:41:52.953Z,100.00
2023-03-30T05:44:21.910Z,100.00
2023-03-30T05:46:49.438Z,100.00
2023-03-30T05:49:16.402Z,100.00
2023-03-30T05:51:43.239Z,100.00
2023-03-30T05:54:14.125Z,100.00
2023-03-30T05:56:42.320Z,100.00
2023-03-30T05:59:10.352Z,100.00
2023-03-30T06:01:37.637Z,100.00
2023-03-30T06:04:04.805Z,100.00
2023-03-30T06:06:32.224Z,100.00
2023-03-30T06:08:59.149Z,100.00
2023-03-30T06:11:25.989Z,100.00
2023-03-30T06:13:52.855Z,100.00
2023-03-30T06:16:19.693Z,100.00
2023-03-30T06:18:46.630Z,100.00
2023-03-30T06:21:13.602Z,100.00
2023-03-30T06:23:41.252Z,100.00
2023-03-30T06:26:09.299Z,100.00
2023-03-30T06:28:36.564Z,100.00
2023-03-30T06:31:09.131Z,100.00
2023-03-30T06:33:37.895Z,100.00
2023-03-30T06:36:11.888Z,100.00
2023-03-30T06:38:39.471Z,100.00
2023-03-30T06:41:09.958Z,100.00
2023-03-30T06:43:37.229Z,100.00
2023-03-30T06:46:05.230Z,100.00
2023-03-30T06:48:32.068Z,100.00
2023-03-30T06:50:59.304Z,100.00
2023-03-30T06:53:26.429Z,100.00
2023-03-30T06:55:56.770Z,100.00
2023-03-30T06:58:28.289Z,100.00
2023-03-30T07:00:55.894Z,100.00
2023-03-30T07:03:22.979Z,100.00
2023-03-30T07:05:52.965Z,100.00
2023-03-30T07:08:20.245Z,100.00
2023-03-30T07:10:48.825Z,100.00
2023-03-30T07:13:16.944Z,100.00
2023-03-30T07:15:44.773Z,100.00
2023-03-30T07:18:11.740Z,100.00
2023-03-30T07:20:38.913Z,100.00
2023-03-30T07:23:06.475Z,100.00
2023-03-30T07:25:33.346Z,100.00
2023-03-30T07:28:00.164Z,100.00
2023-03-30T07:30:27.567Z,100.00
2023-03-30T07:32:56.167Z,100.00
2023-03-30T07:35:24.892Z,100.00
2023-03-30T07:37:51.798Z,100.00
2023-03-30T07:40:21.235Z,100.00
2023-03-30T07:42:48.171Z,100.00
2023-03-30T07:45:16.583Z,100.00
2023-03-30T07:47:43.680Z,100.00
2023-03-30T07:50:10.838Z,100.00
2023-03-30T07:52:38.074Z,100.00
2023-03-30T07:55:05.514Z,100.00
2023-03-30T07:57:32.403Z,100.00
2023-03-30T07:59:59.399Z,100.00
2023-03-30T08:02:27.188Z,100.00
2023-03-30T08:04:54.484Z,100.00
2023-03-30T08:07:21.373Z,100.00
2023-03-30T08:09:48.305Z,100.00
2023-03-30T08:12:15.183Z,100.00
2023-03-30T08:14:42.121Z,100.00
2023-03-30T08:17:09.029Z,100.00
2023-03-30T08:19:36.016Z,100.00
2023-03-30T08:22:03.326Z,100.00
2023-03-30T08:24:30.267Z,100.00
2023-03-30T08:26:57.126Z,100.00
2023-03-30T08:29:24.022Z,100.00
2023-03-30T08:31:54.007Z,100.00
2023-03-30T08:34:20.890Z,100.00
2023-03-30T08:36:47.697Z,100.00
2023-03-30T08:39:15.510Z,100.00
2023-03-30T08:41:57.561Z,100.00
2023-03-30T08:44:39.200Z,100.00
2023-03-30T08:47:15.979Z,100.00
2023-03-30T08:49:52.418Z,100.00
2023-03-30T08:52:25.041Z,100.00
2023-03-30T08:54:52.997Z,100.00
2023-03-30T08:58:14.657Z,100.00
2023-03-30T09:00:51.542Z,100.00
2023-03-30T09:03:37.768Z,100.00
2023-03-30T09:06:19.669Z,100.00
2023-03-30T09:08:47.869Z,100.00
2023-03-30T09:11:26.091Z,100.00
2023-03-30T09:13:53.469Z,100.00
2023-03-30T09:16:35.563Z,100.00
2023-03-30T09:19:05.426Z,100.00
2023-03-30T09:21:32.469Z,100.00
2023-03-30T09:24:11.729Z,100.00
2023-03-30T09:27:03.619Z,100.00
2023-03-30T09:29:34.144Z,100.00
2023-03-30T09:32:33.250Z,100.00
2023-03-30T09:35:14.275Z,100.00
2023-03-30T09:37:41.098Z,100.00
2023-03-30T09:40:31.504Z,100.00
2023-03-30T09:43:25.723Z,100.00
2023-03-30T09:45:52.716Z,100.00
2023-03-30T09:48:19.566Z,100.00
2023-03-30T09:50:46.947Z,100.00
2023-03-30T09:53:26.926Z,100.00
2023-03-30T09:56:13.373Z,100.00
2023-03-30T09:58:41.489Z,100.00
2023-03-30T10:01:19.938Z,100.00
2023-03-30T10:04:11.007Z,100.00
2023-03-30T10:06:50.757Z,100.00
2023-03-30T10:09:22.041Z,100.00
2023-03-30T10:11:51.448Z,100.00
2023-03-30T10:14:28.804Z,100.00
2023-03-30T10:16:57.717Z,100.00
2023-03-30T10:19:26.149Z,100.00
2023-03-30T10:22:04.135Z,100.00
2023-03-30T10:24:33.996Z,100.00
2023-03-30T10:27:13.190Z,100.00
2023-03-30T10:29:48.662Z,100.00
2023-03-30T10:32:20.764Z,100.00
2023-03-30T10:34:54.492Z,100.00
2023-03-30T10:37:33.268Z,100.00
2023-03-30T10:40:09.953Z,100.00
2023-03-30T10:42:37.126Z,100.00
2023-03-30T10:45:07.070Z,100.00
2023-03-30T10:47:59.462Z,100.00
2023-03-30T10:51:03.807Z,100.00
2023-03-30T10:54:21.868Z,100.00
2023-03-30T10:56:54.429Z,100.00
2023-03-30T11:00:10.133Z,100.00
2023-03-30T11:03:12.724Z,100.00
2023-03-30T11:05:47.962Z,100.00
2023-03-30T11:08:40.889Z,100.00
2023-03-30T11:11:20.931Z,100.00
2023-03-30T11:14:01.918Z,100.00
2023-03-30T11:16:57.290Z,100.00
2023-03-30T11:19:40.472Z,100.00
2023-03-30T11:22:42.305Z,100.00
2023-03-30T11:25:23.876Z,100.00
2023-03-30T11:28:01.586Z,100.00
2023-03-30T11:30:34.928Z,100.00
2023-03-30T11:33:39.246Z,100.00
2023-03-30T11:36:27.367Z,100.00
2023-03-30T11:39:05.550Z,100.00
2023-03-30T11:41:44.283Z,100.00
2023-03-30T11:44:11.981Z,100.00
2023-03-30T11:47:13.962Z,100.00
2023-03-30T11:49:50.981Z,100.00
2023-03-30T11:52:47.867Z,100.00
2023-03-30T11:56:10.640Z,100.00
2023-03-30T11:59:02.338Z,100.00
2023-03-30T12:01:44.262Z,100.00
2023-03-30T12:04:15.937Z,100.00
2023-03-30T12:06:58.846Z,100.00
2023-03-30T12:09:37.254Z,100.00
2023-03-30T12:12:18.417Z,100.00
2023-03-30T12:15:02.828Z,100.00
2023-03-30T12:17:44.313Z,100.00
2023-03-30T12:20:18.103Z,100.00
2023-03-30T12:23:21.556Z,100.00
2023-03-30T12:26:11.153Z,100.00
2023-03-30T12:29:20.792Z,100.00
2023-03-30T12:32:03.570Z,100.00
2023-03-30T12:34:37.348Z,100.00
2023-03-30T12:37:23.908Z,100.00
2023-03-30T12:40:09.113Z,100.00
2023-03-30T12:42:54.232Z,100.00
2023-03-30T12:45:28.615Z,100.00
2023-03-30T12:48:26.394Z,100.00
2023-03-30T12:51:32.605Z,100.00
2023-03-30T12:54:38.847Z,100.00
2023-03-30T12:57:31.508Z,100.00
2023-03-30T13:00:29.236Z,100.00
2023-03-30T13:03:36.318Z,100.00
2023-03-30T13:06:07.255Z,100.00
2023-03-30T13:08:41.288Z,100.00
2023-03-30T13:11:17.355Z,100.00
2023-03-30T13:13:51.625Z,100.00
2023-03-30T13:16:52.618Z,100.00
2023-03-30T13:19:34.199Z,100.00
2023-03-30T13:22:12.938Z,100.00
2023-03-30T13:24:54.067Z,100.00
2023-03-30T13:27:36.404Z,100.00
2023-03-30T13:30:09.208Z,100.00
2023-03-30T13:33:00.904Z,100.00
2023-03-30T13:36:05.260Z,100.00
2023-03-30T13:39:04.427Z,100.00
2023-03-30T13:42:05.599Z,100.00
2023-03-30T13:44:53.948Z,100.00
2023-03-30T13:47:47.910Z,100.00
2023-03-30T13:50:27.313Z,100.00
2023-03-30T13:52:56.166Z,98.27
2023-03-30T13:55:35.831Z,100.00
2023-03-30T13:58:20.695Z,100.00
2023-03-30T14:00:52.601Z,97.85
2023-03-30T14:03:55.281Z,94.97
2023-03-30T14:06:31.842Z,90.32
2023-03-30T14:09:07.381Z,91.93
2023-03-30T14:11:34.931Z,88.83
2023-03-30T14:14:04.875Z,85.65
2023-03-30T14:16:38.406Z,84.75
2023-03-30T14:19:21.810Z,83.43
2023-03-30T14:21:50.253Z,79.43
2023-03-30T14:24:21.156Z,81.40
2023-03-30T14:26:50.226Z,83.34
2023-03-30T14:29:30.326Z,81.35
2023-03-30T14:34:33.752Z,77.42
2023-03-30T14:37:06.253Z,77.10
2023-03-30T14:39:44.757Z,77.40
2023-03-30T14:42:20.142Z,78.86
2023-03-30T14:44:50.660Z,76.79
2023-03-30T14:47:22.232Z,78.51
2023-03-30T14:49:51.910Z,77.55
2023-03-30T14:52:25.652Z,77.29
2023-03-30T14:55:06.672Z,78.42
2023-03-30T14:57:38.426Z,79.52
2023-03-30T15:00:20.593Z,79.72
2023-03-30T15:02:55.141Z,81.69
2023-03-30T15:05:28.841Z,82.92
2023-03-30T15:07:55.786Z,82.07
2023-03-30T15:10:44.524Z,84.72
2023-03-30T15:13:25.032Z,84.41
2023-03-30T15:15:54.319Z,85.26
2023-03-30T15:18:27.106Z,85.30
2023-03-30T15:20:56.051Z,83.99
2023-03-30T15:23:24.765Z,83.75
2023-03-30T15:25:56.171Z,81.88
2023-03-30T15:28:23.052Z,82.82
2023-03-30T15:30:53.136Z,80.03
2023-03-30T15:33:25.406Z,82.01
2023-03-30T15:35:53.919Z,81.70
2023-03-30T15:38:35.965Z,80.67
2023-03-30T15:41:04.138Z,83.01
2023-03-30T15:43:33.602Z,80.64
2023-03-30T15:46:13.760Z,79.84
2023-03-30T15:48:47.024Z,79.12
2023-03-30T15:51:22.735Z,78.02
2023-03-30T15:54:04.737Z,77.42
2023-03-30T15:56:49.652Z,77.19
2023-03-30T15:59:19.975Z,76.56
2023-03-30T16:01:55.499Z,76.41
2023-03-30T16:04:24.833Z,76.36
2023-03-30T16:06:52.794Z,76.23
2023-03-30T16:09:19.868Z,78.20
2023-03-30T16:11:47.221Z,73.79
2023-03-30T16:14:20.184Z,73.62
2023-03-30T16:16:47.820Z,72.29
2023-03-30T16:19:18.220Z,68.16
2023-03-30T16:21:45.702Z,67.71
2023-03-30T16:24:13.142Z,68.86
2023-03-30T16:26:40.026Z,70.33
2023-03-30T16:29:19.950Z,69.07
2023-03-30T16:31:47.397Z,68.68
2023-03-30T16:34:14.244Z,67.73
2023-03-30T16:36:41.397Z,67.76
2023-03-30T16:39:27.723Z,67.85
2023-03-30T16:41:55.970Z,68.21
2023-03-30T16:44:25.045Z,67.19
2023-03-30T16:46:52.629Z,69.21
2023-03-30T16:49:25.525Z,66.36
2023-03-30T16:51:55.389Z,65.47
2023-03-30T16:54:31.850Z,64.74
2023-03-30T16:57:00.095Z,66.70
2023-03-30T16:59:30.284Z,67.64
2023-03-30T17:01:57.300Z,68.51
2023-03-30T17:04:24.136Z,68.32
2023-03-30T17:06:51.125Z,68.44
2023-03-30T17:09:19.538Z,69.13
2023-03-30T17:11:47.916Z,69.25
2023-03-30T17:14:15.676Z,69.53
2023-03-30T17:16:42.700Z,69.48
2023-03-30T17:19:14.376Z,70.77
2023-03-30T17:21:43.837Z,71.21
2023-03-30T17:24:12.500Z,71.60
2023-03-30T17:26:39.918Z,72.35
2023-03-30T17:29:06.729Z,73.53
2023-03-30T17:31:33.860Z,74.08
2023-03-30T17:34:00.929Z,74.78
2023-03-30T17:36:28.931Z,75.31
2023-03-30T17:38:56.648Z,77.16
2023-03-30T17:41:23.596Z,76.69
2023-03-30T17:43:51.543Z,77.90
2023-03-30T17:46:20.655Z,79.08
2023-03-30T17:48:47.668Z,79.29
2023-03-30T17:51:14.526Z,79.03
2023-03-30T17:53:41.565Z,79.53
2023-03-30T17:56:12.675Z,79.77
2023-03-30T17:58:39.489Z,80.73
2023-03-30T18:01:09.113Z,81.45
2023-03-30T18:03:39.109Z,81.17
2023-03-30T18:06:06.450Z,81.97
2023-03-30T18:08:33.458Z,80.34
2023-03-30T18:11:01.338Z,81.11
2023-03-30T18:13:30.458Z,81.18
2023-03-30T18:15:59.604Z,82.26
2023-03-30T18:18:29.567Z,83.16
2023-03-30T18:21:05.396Z,84.04
2023-03-30T18:23:34.306Z,85.01
2023-03-30T18:26:02.162Z,83.95
2023-03-30T18:28:31.455Z,84.27
2023-03-30T18:30:58.546Z,85.01
2023-03-30T18:33:27.109Z,86.19
2023-03-30T18:35:56.812Z,85.93
2023-03-30T18:38:25.526Z,85.04
2023-03-30T18:40:57.388Z,86.58
2023-03-30T18:43:26.263Z,88.28
2023-03-30T18:45:54.477Z,89.56
2023-03-30T18:48:22.249Z,89.11
2023-03-30T18:50:54.273Z,89.26
2023-03-30T18:53:27.443Z,89.43
2023-03-30T18:55:58.024Z,90.28
2023-03-30T18:58:27.745Z,91.41
2023-03-30T19:00:55.805Z,92.91
2023-03-30T19:03:23.575Z,91.89
2023-03-30T19:05:51.378Z,93.50
2023-03-30T19:08:22.552Z,93.02
2023-03-30T19:10:53.167Z,92.86
2023-03-30T19:13:21.480Z,93.94
2023-03-30T19:15:50.854Z,95.08
2023-03-30T19:18:18.467Z,94.72
2023-03-30T19:20:45.917Z,95.71
2023-03-30T19:23:17.014Z,95.86
2023-03-30T19:25:44.912Z,96.40
2023-03-30T19:28:12.850Z,96.28
2023-03-30T19:30:40.351Z,96.97
2023-03-30T19:33:19.798Z,97.98
2023-03-30T19:35:46.952Z,97.92
2023-03-30T19:38:15.368Z,97.56
2023-03-30T19:40:42.963Z,97.72
2023-03-30T19:43:10.191Z,97.23
2023-03-30T19:45:37.643Z,98.03
2023-03-30T19:48:05.163Z,97.94
2023-03-30T19:50:32.060Z,97.41
2023-03-30T19:52:59.344Z,97.39
2023-03-30T19:55:27.078Z,98.29
2023-03-30T19:57:53.927Z,98.72
2023-03-30T20:00:22.652Z,98.25
2023-03-30T20:02:52.285Z,98.02
2023-03-30T20:05:21.097Z,97.72
2023-03-30T20:07:48.944Z,97.21
2023-03-30T20:10:20.253Z,97.55
2023-03-30T20:12:48.094Z,98.29
2023-03-30T20:15:15.579Z,98.58
2023-03-30T20:17:43.134Z,98.45
2023-03-30T20:20:13.479Z,99.33
2023-03-30T20:22:43.076Z,99.94
2023-03-30T20:25:13.949Z,100.00
2023-03-30T20:27:40.859Z,100.00
2023-03-30T20:30:08.798Z,100.00
2023-03-30T20:32:35.908Z,100.00
2023-03-30T20:35:03.262Z,100.00
2023-03-30T20:37:30.132Z,100.00
2023-03-30T20:40:04.181Z,100.00
2023-03-30T20:42:32.460Z,100.00
2023-03-30T20:44:59.594Z,100.00
2023-03-30T20:47:30.450Z,100.00
2023-03-30T20:49:58.296Z,100.00
2023-03-30T20:52:25.850Z,100.00
2023-03-30T20:54:52.960Z,100.00
2023-03-30T20:57:21.340Z,100.00
2023-03-30T20:59:49.280Z,100.00
2023-03-30T21:02:18.835Z,100.00
2023-03-30T21:04:45.730Z,100.00
2023-03-30T21:07:12.845Z,100.00
2023-03-30T21:09:40.487Z,100.00
2023-03-30T21:12:09.681Z,100.00
2023-03-30T21:14:36.637Z,100.00
2023-03-30T21:17:03.975Z,100.00
2023-03-30T21:19:30.901Z,100.00
2023-03-30T21:21:57.831Z,100.00
2023-03-30T21:24:24.745Z,100.00
2023-03-30T21:26:51.655Z,100.00
2023-03-30T21:29:18.544Z,100.00
2023-03-30T21:31:48.348Z,100.00
2023-03-30T21:34:15.675Z,100.00
2023-03-30T21:36:42.703Z,99.67
2023-03-30T21:39:09.692Z,100.00
2023-03-30T21:41:36.493Z,99.16
2023-03-30T21:44:03.276Z,99.06
2023-03-30T21:46:31.099Z,98.22
2023-03-30T21:48:57.947Z,96.14
2023-03-30T21:51:28.631Z,94.60
2023-03-30T21:53:56.303Z,94.16
2023-03-30T21:56:26.080Z,95.81
2023-03-30T21:58:52.926Z,95.50
2023-03-30T22:01:21.788Z,96.40
2023-03-30T22:03:48.801Z,97.08
2023-03-30T22:06:17.534Z,96.27
2023-03-30T22:08:45.464Z,95.06
2023-03-30T22:11:19.573Z,94.10
2023-03-30T22:13:48.587Z,95.36
2023-03-30T22:16:28.752Z,97.02
2023-03-30T22:18:55.830Z,97.43
2023-03-30T22:21:29.166Z,97.73
2023-03-30T22:23:56.326Z,97.66
2023-03-30T22:26:23.585Z,97.91
2023-03-30T22:28:50.395Z,98.43
2023-03-30T22:31:17.282Z,98.40
2023-03-30T22:33:44.925Z,99.50
2023-03-30T22:36:26.792Z,100.00
2023-03-30T22:38:55.879Z,100.00
2023-03-30T22:41:26.485Z,100.00
2023-03-30T22:43:56.635Z,100.00
2023-03-30T22:46:26.026Z,100.00
2023-03-30T22:48:55.534Z,100.00
2023-03-30T22:51:26.364Z,100.00
2023-03-30T22:53:57.900Z,100.00
2023-03-30T22:56:25.747Z,100.00
2023-03-30T22:58:52.761Z,100.00
2023-03-30T23:01:21.404Z,100.00
2023-03-30T23:03:48.380Z,100.00
2023-03-30T23:06:18.763Z,100.00
2023-03-30T23:08:47.167Z,100.00
2023-03-30T23:11:14.212Z,100.00
2023-03-30T23:13:42.061Z,100.00
2023-03-30T23:16:09.276Z,100.00
2023-03-30T23:18:36.531Z,100.00
2023-03-30T23:21:06.995Z,100.00
2023-03-30T23:23:35.893Z,100.00
2023-03-30T23:26:10.004Z,100.00
2023-03-30T23:28:39.600Z,100.00
2023-03-30T23:31:15.468Z,100.00
2023-03-30T23:33:43.634Z,100.00
2023-03-30T23:36:17.012Z,100.00
2023-03-30T23:38:44.346Z,100.00
2023-03-30T23:41:15.482Z,100.00
2023-03-30T23:43:42.547Z,100.00
2023-03-30T23:46:10.405Z,100.00
2023-03-30T23:48:37.812Z,100.00
2023-03-30T23:51:05.461Z,100.00
2023-03-30T23:53:32.279Z,100.00
2023-03-30T23:55:59.749Z,100.00
2023-03-30T23:58:26.809Z,100.00
